createdAt,value
2019-01-24T00:00:33.662Z,55.70
2019-01-24T00:03:02.238Z,68.80
2019-01-24T00:05:30.828Z,76.47
2019-01-24T00:07:59.895Z,77.10
2019-01-24T00:10:28.466Z,71.60
2019-01-24T00:12:56.994Z,60.00
2019-01-24T00:15:25.489Z,54.97
2019-01-24T00:17:54.093Z,69.57
2019-01-24T00:20:22.762Z,62.40
2019-01-24T00:22:51.331Z,29.97
2019-01-24T00:25:19.974Z,46.03
2019-01-24T00:27:48.513Z,32.13
2019-01-24T00:30:17.274Z,50.87
2019-01-24T00:32:46.202Z,48.70
2019-01-24T00:35:14.816Z,53.10
2019-01-24T00:37:43.480Z,66.67
2019-01-24T00:40:19.753Z,69.80
2019-01-24T00:42:48.358Z,58.47
2019-01-24T00:45:16.858Z,47.87
2019-01-24T00:47:45.525Z,34.90
2019-01-24T00:50:15.468Z,45.33
2019-01-24T00:52:44.140Z,51.50
2019-01-24T00:55:16.129Z,35.27
2019-01-24T00:57:44.729Z,24.13
2019-01-24T01:00:16.466Z,24.67
2019-01-24T01:02:45.127Z,21.47
2019-01-24T01:05:14.078Z,29.37
2019-01-24T01:07:42.569Z,28.20
2019-01-24T01:10:11.879Z,24.37
2019-01-24T01:12:40.447Z,51.23
2019-01-24T01:15:16.786Z,50.80
2019-01-24T01:17:45.624Z,48.63
2019-01-24T01:20:19.308Z,33.07
2019-01-24T01:22:47.924Z,21.53
2019-01-24T01:25:16.536Z,25.50
2019-01-24T01:27:45.369Z,25.30
2019-01-24T01:30:19.812Z,33.60
2019-01-24T01:32:48.376Z,26.73
2019-01-24T01:35:17.527Z,31.27
2019-01-24T01:37:46.096Z,34.77
2019-01-24T01:40:17.336Z,24.30
2019-01-24T01:42:45.895Z,20.13
2019-01-24T01:45:18.826Z,24.17
2019-01-24T01:47:47.395Z,27.63
2019-01-24T01:50:20.200Z,24.47
2019-01-24T01:52:48.721Z,22.87
2019-01-24T01:55:17.660Z,26.10
2019-01-24T01:57:46.152Z,26.50
2019-01-24T02:00:22.779Z,37.20
2019-01-24T02:02:51.721Z,23.47
2019-01-24T02:05:20.275Z,26.90
2019-01-24T02:07:48.887Z,33.03
2019-01-24T02:10:19.520Z,32.97
2019-01-24T02:12:48.017Z,54.13
2019-01-24T02:15:17.501Z,43.33
2019-01-24T02:17:46.141Z,51.20
2019-01-24T02:20:17.087Z,52.77
2019-01-24T02:22:45.618Z,55.03
2019-01-24T02:25:14.197Z,59.03
2019-01-24T02:27:42.701Z,65.67
2019-01-24T02:30:17.384Z,54.63
2019-01-24T02:32:45.886Z,59.10
2019-01-24T02:35:14.453Z,65.10
2019-01-24T02:37:42.993Z,63.80
2019-01-24T02:40:11.859Z,61.10
2019-01-24T02:42:40.388Z,35.97
2019-01-24T02:45:14.568Z,38.63
2019-01-24T02:47:43.144Z,23.87
2019-01-24T02:50:14.623Z,43.90
2019-01-24T02:52:43.252Z,27.10
2019-01-24T02:55:13.821Z,32.13
2019-01-24T02:57:42.316Z,30.03
2019-01-24T03:00:19.190Z,22.53
2019-01-24T03:02:47.689Z,26.13
2019-01-24T03:05:37.192Z,25.17
2019-01-24T03:08:05.691Z,37.40
2019-01-24T03:10:34.191Z,30.13
2019-01-24T03:13:02.814Z,24.67
2019-01-24T03:15:31.306Z,44.70
2019-01-24T03:17:59.806Z,24.97
2019-01-24T03:20:28.409Z,20.00
2019-01-24T03:22:56.982Z,24.17
2019-01-24T03:25:25.563Z,21.63
2019-01-24T03:27:54.093Z,28.50
2019-01-24T03:30:22.674Z,22.60
2019-01-24T03:32:51.291Z,21.20
2019-01-24T03:35:22.441Z,28.17
2019-01-24T03:37:50.925Z,23.30
2019-01-24T03:40:19.827Z,17.77
2019-01-24T03:42:48.377Z,32.10
2019-01-24T03:45:17.640Z,48.27
2019-01-24T03:47:46.206Z,44.83
2019-01-24T03:50:16.631Z,31.93
2019-01-24T03:52:45.266Z,23.53
2019-01-24T03:55:15.440Z,23.07
2019-01-24T03:57:43.968Z,25.27
2019-01-24T04:00:15.295Z,23.10
2019-01-24T04:02:43.820Z,24.07
2019-01-24T04:05:12.826Z,21.47
2019-01-24T04:07:41.401Z,26.83
2019-01-24T04:10:13.138Z,22.03
2019-01-24T04:12:41.726Z,22.00
2019-01-24T04:15:13.067Z,25.10
2019-01-24T04:17:41.559Z,26.53
2019-01-24T04:20:11.748Z,19.77
2019-01-24T04:22:40.240Z,21.40
2019-01-24T04:25:08.913Z,20.13
2019-01-24T04:27:37.512Z,22.23
2019-01-24T04:30:09.313Z,23.63
2019-01-24T04:32:37.873Z,24.27
2019-01-24T04:35:08.680Z,20.57
2019-01-24T04:37:37.211Z,22.23
2019-01-24T04:40:11.222Z,21.37
2019-01-24T04:42:39.859Z,23.63
2019-01-24T04:45:10.953Z,25.97
2019-01-24T04:47:39.515Z,25.17
2019-01-24T04:50:10.827Z,22.77
2019-01-24T04:52:39.400Z,24.27
2019-01-24T04:55:10.464Z,19.50
2019-01-24T04:57:39.065Z,27.10
2019-01-24T05:00:10.824Z,22.60
2019-01-24T05:02:39.461Z,22.37
2019-01-24T05:05:08.066Z,21.97
2019-01-24T05:07:36.744Z,20.70
2019-01-24T05:10:07.102Z,21.37
2019-01-24T05:12:35.778Z,20.13
2019-01-24T05:15:05.318Z,17.93
2019-01-24T05:17:33.896Z,20.23
2019-01-24T05:20:02.581Z,20.63
2019-01-24T05:22:31.065Z,15.00
2019-01-24T05:24:59.719Z,18.03
2019-01-24T05:27:28.250Z,18.33
2019-01-24T05:29:56.748Z,18.80
2019-01-24T05:32:25.244Z,18.33
2019-01-24T05:34:53.817Z,17.53
2019-01-24T05:37:22.270Z,20.30
2019-01-24T05:39:50.835Z,19.33
2019-01-24T05:42:19.458Z,17.20
2019-01-24T05:44:48.030Z,16.63
2019-01-24T05:47:16.602Z,18.30
2019-01-24T05:49:45.237Z,16.07
2019-01-24T05:52:19.464Z,22.67
2019-01-24T05:54:44.003Z,17.33
2019-01-24T05:57:12.614Z,18.10
2019-01-24T05:59:41.333Z,18.73
2019-01-24T06:02:09.965Z,18.27
2019-01-24T06:04:38.508Z,24.90
2019-01-24T06:07:07.076Z,21.13
2019-01-24T06:09:35.642Z,18.77
2019-01-24T06:12:04.178Z,20.13
2019-01-24T06:14:32.756Z,19.60
2019-01-24T06:17:01.394Z,14.90
2019-01-24T06:19:29.930Z,18.67
2019-01-24T06:21:58.501Z,22.10
2019-01-24T06:24:27.061Z,19.07
2019-01-24T06:26:55.664Z,18.37
2019-01-24T06:29:24.231Z,16.23
2019-01-24T06:31:52.734Z,17.07
2019-01-24T06:34:21.416Z,16.63
2019-01-24T06:36:49.977Z,16.97
2019-01-24T06:39:18.538Z,17.07
2019-01-24T06:41:47.182Z,14.13
2019-01-24T06:44:15.812Z,17.20
2019-01-24T06:46:44.387Z,20.67
2019-01-24T06:49:12.967Z,22.83
2019-01-24T06:51:41.604Z,23.43
2019-01-24T06:54:10.813Z,21.97
2019-01-24T06:56:39.502Z,19.73
2019-01-24T06:59:08.031Z,20.37
2019-01-24T07:01:36.594Z,19.70
2019-01-24T07:04:05.202Z,24.80
2019-01-24T07:06:33.928Z,22.37
2019-01-24T07:09:05.547Z,21.43
2019-01-24T07:11:34.102Z,25.83
2019-01-24T07:14:03.019Z,23.27
2019-01-24T07:16:31.591Z,21.67
2019-01-24T07:19:00.141Z,19.63
2019-01-24T07:21:28.622Z,18.17
2019-01-24T07:23:57.188Z,24.37
2019-01-24T07:26:25.727Z,20.93
2019-01-24T07:28:54.365Z,24.37
2019-01-24T07:31:22.935Z,26.53
2019-01-24T07:33:51.463Z,24.77
2019-01-24T07:36:20.079Z,22.17
2019-01-24T07:38:48.658Z,24.00
2019-01-24T07:41:17.179Z,30.33
2019-01-24T07:43:45.939Z,21.17
2019-01-24T07:46:14.492Z,18.07
2019-01-24T07:48:43.042Z,17.97
2019-01-24T07:51:11.543Z,17.63
2019-01-24T07:53:40.107Z,17.53
2019-01-24T07:56:08.748Z,16.20
2019-01-24T07:58:37.387Z,17.77
2019-01-24T08:01:05.899Z,18.23
2019-01-24T08:03:34.499Z,18.60
2019-01-24T08:06:08.837Z,17.23
2019-01-24T08:08:33.153Z,19.10
2019-01-24T08:11:01.829Z,16.13
2019-01-24T08:13:30.378Z,19.50
2019-01-24T08:15:58.942Z,17.97
2019-01-24T08:18:27.476Z,27.30
2019-01-24T08:20:56.072Z,19.77
2019-01-24T08:23:24.626Z,19.63
2019-01-24T08:25:53.611Z,17.90
2019-01-24T08:28:22.652Z,21.87
2019-01-24T08:30:51.222Z,17.33
2019-01-24T08:33:19.748Z,22.10
2019-01-24T08:35:48.249Z,20.67
2019-01-24T08:38:16.742Z,15.23
2019-01-24T08:40:45.417Z,22.37
2019-01-24T08:43:13.983Z,16.20
2019-01-24T08:45:42.590Z,18.37
2019-01-24T08:48:11.197Z,18.97
2019-01-24T08:50:39.770Z,19.83
2019-01-24T08:53:08.270Z,20.73
2019-01-24T08:55:38.276Z,20.37
2019-01-24T08:58:06.882Z,20.13
2019-01-24T09:00:35.479Z,22.70
2019-01-24T09:03:04.101Z,20.23
2019-01-24T09:05:32.603Z,19.87
2019-01-24T09:08:01.170Z,18.07
2019-01-24T09:10:32.522Z,17.27
2019-01-24T09:13:02.338Z,20.30
2019-01-24T09:15:30.898Z,19.33
2019-01-24T09:17:59.521Z,18.67
2019-01-24T09:20:28.150Z,13.87
2019-01-24T09:22:56.726Z,20.00
2019-01-24T09:25:25.354Z,20.17
2019-01-24T09:27:53.923Z,18.03
2019-01-24T09:30:27.963Z,19.03
2019-01-24T09:32:56.591Z,20.20
2019-01-24T09:35:25.227Z,22.47
2019-01-24T09:37:53.790Z,18.07
2019-01-24T09:40:23.156Z,18.00
2019-01-24T09:42:51.729Z,18.60
2019-01-24T09:45:28.276Z,19.77
2019-01-24T09:47:58.138Z,18.13
2019-01-24T09:50:27.578Z,19.17
2019-01-24T09:52:56.172Z,17.50
2019-01-24T09:55:24.746Z,20.10
2019-01-24T09:57:53.303Z,22.03
2019-01-24T10:00:24.081Z,19.20
2019-01-24T10:02:52.575Z,18.63
2019-01-24T10:05:21.214Z,22.97
2019-01-24T10:07:49.806Z,15.97
2019-01-24T10:10:20.353Z,19.60
2019-01-24T10:12:49.039Z,20.03
2019-01-24T10:15:19.219Z,18.47
2019-01-24T10:17:47.781Z,17.33
2019-01-24T10:20:18.295Z,21.83
2019-01-24T10:22:46.934Z,18.50
2019-01-24T10:25:18.463Z,17.53
2019-01-24T10:27:47.066Z,21.80
2019-01-24T10:30:18.766Z,22.13
2019-01-24T10:32:47.393Z,17.03
2019-01-24T10:35:18.797Z,16.40
2019-01-24T10:37:47.443Z,16.53
2019-01-24T10:40:18.812Z,16.57
2019-01-24T10:42:47.445Z,14.93
2019-01-24T10:45:18.652Z,21.90
2019-01-24T10:47:47.290Z,16.00
2019-01-24T10:50:17.795Z,17.33
2019-01-24T10:52:46.301Z,18.53
2019-01-24T10:55:17.059Z,16.80
2019-01-24T10:57:45.732Z,15.67
2019-01-24T11:00:17.339Z,19.50
2019-01-24T11:02:45.966Z,14.50
2019-01-24T11:05:16.789Z,15.63
2019-01-24T11:07:45.349Z,20.27
2019-01-24T11:10:15.879Z,16.50
2019-01-24T11:12:44.573Z,18.60
2019-01-24T11:15:15.613Z,13.87
2019-01-24T11:17:56.477Z,17.03
2019-01-24T11:20:25.045Z,17.40
2019-01-24T11:22:53.613Z,22.10
2019-01-24T11:25:26.791Z,22.33
2019-01-24T11:27:55.351Z,19.37
2019-01-24T11:30:25.787Z,23.10
2019-01-24T11:32:55.839Z,20.43
2019-01-24T11:35:26.924Z,21.53
2019-01-24T11:37:55.551Z,18.27
2019-01-24T11:40:24.093Z,20.70
2019-01-24T11:42:52.647Z,19.43
2019-01-24T11:45:27.342Z,25.83
2019-01-24T11:47:55.960Z,24.17
2019-01-24T11:50:24.533Z,13.60
2019-01-24T11:52:53.536Z,16.90
2019-01-24T11:55:22.271Z,18.93
2019-01-24T11:57:51.330Z,20.57
2019-01-24T12:00:35.905Z,18.87
2019-01-24T12:03:05.529Z,15.73
2019-01-24T12:05:34.172Z,17.97
2019-01-24T12:08:02.756Z,15.90
2019-01-24T12:10:31.389Z,17.23
2019-01-24T12:12:59.874Z,18.87
2019-01-24T12:15:29.881Z,19.83
2019-01-24T12:17:58.523Z,21.43
2019-01-24T12:20:27.088Z,18.23
2019-01-24T12:22:55.628Z,16.33
2019-01-24T12:25:24.266Z,20.30
2019-01-24T12:27:52.829Z,19.57
2019-01-24T12:30:24.543Z,21.10
2019-01-24T12:32:53.289Z,17.87
2019-01-24T12:35:21.853Z,18.70
2019-01-24T12:37:50.463Z,19.13
2019-01-24T12:40:18.953Z,24.43
2019-01-24T12:42:47.589Z,20.63
2019-01-24T12:45:25.232Z,18.73
2019-01-24T12:47:53.793Z,18.73
2019-01-24T12:50:22.440Z,20.57
2019-01-24T12:52:51.047Z,18.57
2019-01-24T12:55:19.612Z,17.73
2019-01-24T12:57:48.257Z,18.17
2019-01-24T13:00:22.238Z,17.80
2019-01-24T13:02:50.815Z,18.53
2019-01-24T13:05:19.382Z,19.97
2019-01-24T13:07:47.929Z,20.03
2019-01-24T13:10:25.260Z,18.73
2019-01-24T13:12:53.962Z,20.83
2019-01-24T13:15:24.634Z,17.73
2019-01-24T13:17:53.209Z,18.80
2019-01-24T13:20:22.764Z,22.37
2019-01-24T13:22:51.389Z,15.27
2019-01-24T13:25:30.794Z,16.87
2019-01-24T13:27:59.360Z,15.90
2019-01-24T13:30:34.502Z,17.43
2019-01-24T13:33:03.330Z,17.17
2019-01-24T13:35:32.008Z,19.40
2019-01-24T13:38:00.674Z,14.80
2019-01-24T13:40:31.104Z,14.97
2019-01-24T13:43:00.339Z,22.37
2019-01-24T13:45:34.145Z,22.83
2019-01-24T13:48:02.717Z,15.80
2019-01-24T13:50:31.301Z,16.63
2019-01-24T13:52:59.998Z,16.27
2019-01-24T13:55:28.722Z,17.77
2019-01-24T13:57:57.304Z,15.23
2019-01-24T14:00:29.114Z,18.13
2019-01-24T14:03:00.891Z,14.87
2019-01-24T14:05:29.461Z,16.63
2019-01-24T14:07:58.058Z,17.30
2019-01-24T14:10:26.694Z,15.57
2019-01-24T14:12:55.665Z,17.13
2019-01-24T14:15:24.303Z,14.90
2019-01-24T14:17:52.879Z,18.33
2019-01-24T14:20:24.336Z,15.73
2019-01-24T14:22:53.031Z,17.10
2019-01-24T14:25:22.081Z,15.77
2019-01-24T14:27:50.779Z,17.93
2019-01-24T14:30:24.793Z,15.80
2019-01-24T14:32:53.359Z,17.50
2019-01-24T14:35:22.069Z,19.57
2019-01-24T14:37:50.701Z,18.10
2019-01-24T14:40:22.324Z,16.87
2019-01-24T14:42:50.876Z,18.47
2019-01-24T14:45:24.254Z,18.33
2019-01-24T14:47:52.823Z,15.50
2019-01-24T14:50:23.229Z,18.33
2019-01-24T14:52:51.789Z,17.57
2019-01-24T14:55:20.352Z,18.73
2019-01-24T14:57:48.966Z,19.13
2019-01-24T15:00:23.488Z,16.93
2019-01-24T15:02:52.185Z,17.33
2019-01-24T15:05:21.166Z,16.93
2019-01-24T15:07:49.789Z,17.10
2019-01-24T15:10:19.420Z,17.40
2019-01-24T15:12:48.043Z,19.67
2019-01-24T15:15:18.132Z,16.50
2019-01-24T15:17:46.758Z,17.43
2019-01-24T15:20:17.902Z,17.30
2019-01-24T15:22:46.562Z,15.87
2019-01-24T15:25:23.287Z,17.17
2019-01-24T15:27:51.867Z,16.50
2019-01-24T15:30:25.100Z,17.40
2019-01-24T15:32:53.704Z,19.10
2019-01-24T15:35:22.283Z,20.83
2019-01-24T15:37:54.776Z,15.73
2019-01-24T15:40:29.134Z,16.07
2019-01-24T15:42:57.706Z,16.40
2019-01-24T15:45:26.339Z,17.30
2019-01-24T15:47:55.017Z,18.57
2019-01-24T15:50:24.059Z,15.93
2019-01-24T15:52:52.637Z,15.83
2019-01-24T15:55:21.255Z,15.90
2019-01-24T15:57:49.814Z,15.10
2019-01-24T16:00:23.734Z,15.50
2019-01-24T16:02:52.356Z,13.43
2019-01-24T16:05:20.858Z,14.70
2019-01-24T16:07:49.507Z,15.40
2019-01-24T16:10:22.906Z,15.37
2019-01-24T16:12:51.466Z,13.57
2019-01-24T16:15:22.795Z,16.10
2019-01-24T16:17:51.398Z,16.87
2019-01-24T16:20:22.069Z,16.43
2019-01-24T16:22:51.645Z,16.27
2019-01-24T16:25:22.560Z,19.30
2019-01-24T16:27:51.128Z,19.63
2019-01-24T16:30:22.287Z,20.50
2019-01-24T16:32:50.809Z,22.33
2019-01-24T16:35:20.385Z,23.13
2019-01-24T16:37:48.880Z,21.53
2019-01-24T16:40:22.508Z,21.13
2019-01-24T16:42:51.019Z,20.90
2019-01-24T16:45:21.498Z,19.80
2019-01-24T16:47:50.111Z,18.63
2019-01-24T16:50:21.259Z,19.87
2019-01-24T16:52:49.828Z,18.40
2019-01-24T16:55:18.936Z,18.73
2019-01-24T16:57:48.707Z,20.30
2019-01-24T17:00:22.883Z,20.07
2019-01-24T17:02:51.379Z,19.90
2019-01-24T17:05:20.011Z,17.63
2019-01-24T17:07:48.704Z,19.47
2019-01-24T17:10:22.130Z,18.70
2019-01-24T17:12:50.761Z,17.57
2019-01-24T17:15:19.666Z,15.33
2019-01-24T17:17:48.303Z,18.23
2019-01-24T17:20:25.359Z,17.23
2019-01-24T17:22:54.845Z,15.47
2019-01-24T17:25:24.936Z,14.47
2019-01-24T17:27:55.285Z,16.73
2019-01-24T17:30:28.622Z,18.33
2019-01-24T17:32:57.593Z,15.73
2019-01-24T17:35:27.560Z,15.10
2019-01-24T17:37:56.279Z,15.10
2019-01-24T17:40:27.102Z,18.27
2019-01-24T17:42:57.474Z,17.77
2019-01-24T17:45:26.115Z,18.10
2019-01-24T17:47:54.874Z,18.33
2019-01-24T17:50:23.477Z,17.63
2019-01-24T17:52:52.122Z,17.47
2019-01-24T17:55:29.205Z,19.90
2019-01-24T17:57:57.838Z,18.70
2019-01-24T18:00:28.057Z,20.33
2019-01-24T18:02:56.742Z,17.67
2019-01-24T18:05:25.388Z,19.47
2019-01-24T18:07:54.080Z,18.63
2019-01-24T18:10:25.272Z,20.30
2019-01-24T18:12:53.921Z,21.43
2019-01-24T18:15:30.388Z,20.97
2019-01-24T18:17:59.033Z,17.83
2019-01-24T18:20:30.250Z,18.90
2019-01-24T18:22:58.845Z,17.93
2019-01-24T18:25:27.531Z,19.77
2019-01-24T18:27:56.072Z,20.30
2019-01-24T18:30:28.975Z,19.97
2019-01-24T18:32:57.632Z,20.73
2019-01-24T18:35:26.443Z,19.07
2019-01-24T18:37:55.571Z,18.13
2019-01-24T18:40:26.408Z,19.73
2019-01-24T18:42:55.484Z,19.07
2019-01-24T18:45:32.717Z,19.33
2019-01-24T18:48:01.361Z,18.00
2019-01-24T18:50:30.102Z,21.40
2019-01-24T18:52:58.709Z,20.53
2019-01-24T18:55:27.372Z,20.97
2019-01-24T18:57:56.050Z,23.50
2019-01-24T19:00:27.298Z,21.07
2019-01-24T19:02:56.064Z,27.90
2019-01-24T19:05:25.371Z,17.03
2019-01-24T19:07:54.034Z,19.23
2019-01-24T19:10:22.737Z,19.03
2019-01-24T19:12:51.374Z,18.47
2019-01-24T19:15:21.988Z,13.97
2019-01-24T19:17:50.683Z,18.90
2019-01-24T19:20:20.318Z,15.87
2019-01-24T19:22:49.143Z,12.90
2019-01-24T19:25:19.823Z,16.57
2019-01-24T19:27:48.458Z,17.47
2019-01-24T19:30:22.711Z,17.43
2019-01-24T19:32:51.366Z,17.73
2019-01-24T19:35:19.913Z,17.27
2019-01-24T19:37:48.602Z,13.93
2019-01-24T19:40:26.202Z,15.53
2019-01-24T19:42:54.887Z,19.97
2019-01-24T19:45:25.241Z,17.47
2019-01-24T19:47:53.825Z,16.43
2019-01-24T19:50:30.117Z,16.87
2019-01-24T19:52:58.983Z,19.13
2019-01-24T19:55:28.059Z,16.00
2019-01-24T19:57:57.269Z,16.83
2019-01-24T20:00:29.614Z,17.73
2019-01-24T20:02:58.214Z,21.73
2019-01-24T20:05:27.380Z,21.73
2019-01-24T20:07:56.013Z,19.87
2019-01-24T20:10:29.293Z,18.20
2019-01-24T20:12:58.287Z,18.53
2019-01-24T20:15:29.187Z,19.20
2019-01-24T20:17:57.692Z,23.33
2019-01-24T20:20:26.383Z,21.40
2019-01-24T20:22:55.010Z,20.10
2019-01-24T20:25:28.258Z,16.90
2019-01-24T20:27:56.938Z,17.70
2019-01-24T20:30:32.480Z,16.77
2019-01-24T20:33:01.768Z,15.73
2019-01-24T20:35:45.450Z,16.67
2019-01-24T20:38:14.129Z,17.93
2019-01-24T20:40:42.804Z,16.73
2019-01-24T20:43:13.279Z,18.63
2019-01-24T20:45:43.462Z,17.97
2019-01-24T20:48:12.101Z,17.77
2019-01-24T20:50:41.226Z,16.33
2019-01-24T20:53:09.831Z,23.27
2019-01-24T20:55:38.398Z,21.97
2019-01-24T20:58:07.065Z,25.97
2019-01-24T21:00:35.672Z,24.63
2019-01-24T21:03:04.339Z,21.47
2019-01-24T21:05:32.821Z,17.93
2019-01-24T21:08:01.399Z,19.37
2019-01-24T21:10:30.571Z,20.83
2019-01-24T21:12:59.246Z,21.67
2019-01-24T21:15:28.173Z,21.67
2019-01-24T21:17:56.814Z,19.53
2019-01-24T21:20:31.094Z,23.03
2019-01-24T21:22:59.809Z,26.23
2019-01-24T21:25:28.385Z,12.77
2019-01-24T21:27:57.027Z,21.90
2019-01-24T21:30:31.128Z,24.17
2019-01-24T21:32:59.664Z,29.30
2019-01-24T21:35:28.298Z,29.00
2019-01-24T21:37:56.990Z,105.80
2019-01-24T21:40:25.630Z,96.13
2019-01-24T21:42:54.278Z,96.70
2019-01-24T21:45:31.850Z,99.83
2019-01-24T21:48:00.185Z,99.30
2019-01-24T21:50:31.236Z,99.77
2019-01-24T21:52:59.908Z,101.77
2019-01-24T21:55:28.502Z,100.57
2019-01-24T21:57:57.148Z,98.53
2019-01-24T22:00:27.895Z,102.97
2019-01-24T22:02:56.547Z,99.20
2019-01-24T22:05:25.249Z,97.13
2019-01-24T22:07:53.987Z,93.70
2019-01-24T22:10:28.443Z,96.70
2019-01-24T22:12:57.061Z,31.73
2019-01-24T22:15:28.158Z,32.43
2019-01-24T22:17:56.792Z,29.17
2019-01-24T22:20:25.968Z,27.37
2019-01-24T22:22:54.539Z,24.30
2019-01-24T22:25:31.606Z,25.80
2019-01-24T22:28:00.236Z,26.63
2019-01-24T22:30:39.962Z,34.60
2019-01-24T22:33:08.643Z,26.63
2019-01-24T22:35:37.289Z,29.17
2019-01-24T22:38:06.784Z,25.47
2019-01-24T22:40:35.433Z,24.40
2019-01-24T22:43:04.374Z,26.57
2019-01-24T22:45:33.044Z,12.77
2019-01-24T22:48:01.612Z,26.83
2019-01-24T22:50:30.239Z,23.57
2019-01-24T22:52:59.314Z,22.17
2019-01-24T22:55:27.941Z,23.00
2019-01-24T22:57:56.579Z,24.10
2019-01-24T23:00:49.312Z,23.53
2019-01-24T23:03:21.166Z,23.93
2019-01-24T23:05:49.652Z,23.00
2019-01-24T23:08:18.333Z,24.10
2019-01-24T23:10:46.836Z,26.27
2019-01-24T23:13:15.467Z,24.23
2019-01-24T23:15:44.011Z,30.90
2019-01-24T23:18:12.569Z,25.53
2019-01-24T23:20:41.132Z,23.80
2019-01-24T23:23:09.741Z,27.77
2019-01-24T23:25:38.249Z,19.27
2019-01-24T23:28:07.242Z,28.67
2019-01-24T23:30:36.732Z,27.33
2019-01-24T23:33:05.232Z,23.90
2019-01-24T23:35:33.793Z,27.90
2019-01-24T23:38:02.418Z,30.03
2019-01-24T23:40:30.912Z,25.57
2019-01-24T23:42:59.918Z,22.30
2019-01-24T23:45:28.662Z,42.07
2019-01-24T23:47:57.147Z,32.67
2019-01-24T23:50:25.713Z,22.23
2019-01-24T23:52:54.328Z,27.73
2019-01-24T23:55:22.883Z,22.37
2019-01-24T23:57:51.449Z,20.20
